createdAt,value
2017-06-29T00:00:37.107Z,61.20
2017-06-29T00:03:05.398Z,61.30
2017-06-29T00:05:32.949Z,61.30
2017-06-29T00:08:00.539Z,61.30
2017-06-29T00:10:28.086Z,60.50
2017-06-29T00:12:55.982Z,60.70
2017-06-29T00:15:23.527Z,61.30
2017-06-29T00:17:51.041Z,61.30
2017-06-29T00:20:18.598Z,61.30
2017-06-29T00:22:47.330Z,61.10
2017-06-29T00:25:14.977Z,61.00
2017-06-29T00:27:42.517Z,60.80
2017-06-29T00:30:10.046Z,61.20
2017-06-29T00:32:37.595Z,62.20
2017-06-29T00:35:05.122Z,61.30
2017-06-29T00:37:32.662Z,61.50
2017-06-29T00:40:00.188Z,61.20
2017-06-29T00:42:27.742Z,61.20
2017-06-29T00:44:55.267Z,61.20
2017-06-29T00:47:22.830Z,61.30
2017-06-29T00:49:50.367Z,61.60
2017-06-29T00:52:17.897Z,61.30
2017-06-29T00:54:45.437Z,61.30
2017-06-29T00:57:12.962Z,61.30
2017-06-29T00:59:40.509Z,62.50
2017-06-29T01:02:08.031Z,61.90
2017-06-29T01:04:36.357Z,61.60
2017-06-29T01:07:03.883Z,61.40
2017-06-29T01:09:31.430Z,61.20
2017-06-29T01:11:59.713Z,59.80
2017-06-29T01:14:27.272Z,59.80
2017-06-29T01:16:54.793Z,59.90
2017-06-29T01:19:22.319Z,60.30
2017-06-29T01:21:49.860Z,60.40
2017-06-29T01:24:17.401Z,60.00
2017-06-29T01:26:44.976Z,60.20
2017-06-29T01:29:12.498Z,60.70
2017-06-29T01:31:40.038Z,60.20
2017-06-29T01:34:07.570Z,60.20
2017-06-29T01:36:35.119Z,60.70
2017-06-29T01:39:02.633Z,60.90
2017-06-29T01:41:30.171Z,61.40
2017-06-29T01:43:57.706Z,61.30
2017-06-29T01:46:25.250Z,62.20
2017-06-29T01:48:52.766Z,62.50
2017-06-29T01:51:20.342Z,62.40
2017-06-29T01:53:48.619Z,63.90
2017-06-29T01:56:16.908Z,66.10
2017-06-29T01:58:44.455Z,66.00
2017-06-29T02:01:11.978Z,67.40
2017-06-29T02:03:39.519Z,68.20
2017-06-29T02:06:07.046Z,68.90
2017-06-29T02:08:34.600Z,69.60
2017-06-29T02:11:02.125Z,70.30
2017-06-29T02:13:29.675Z,71.20
2017-06-29T02:15:57.280Z,71.20
2017-06-29T02:18:24.842Z,71.40
2017-06-29T02:20:52.372Z,72.40
2017-06-29T02:23:20.659Z,74.70
2017-06-29T02:25:48.201Z,74.70
2017-06-29T02:28:16.502Z,76.20
2017-06-29T02:30:44.047Z,76.20
2017-06-29T02:33:12.334Z,78.60
2017-06-29T02:35:39.891Z,78.60
2017-06-29T02:38:08.173Z,80.50
2017-06-29T02:40:35.717Z,80.40
2017-06-29T02:43:04.009Z,82.20
2017-06-29T02:45:31.569Z,82.10
2017-06-29T02:47:59.101Z,83.50
2017-06-29T02:50:27.395Z,86.30
2017-06-29T02:52:56.179Z,87.20
2017-06-29T02:55:23.710Z,87.20
2017-06-29T02:57:52.156Z,87.90
2017-06-29T03:00:19.681Z,89.20
2017-06-29T03:02:47.225Z,89.50
2017-06-29T03:05:15.512Z,90.20
2017-06-29T03:07:43.835Z,90.30
2017-06-29T03:10:11.363Z,90.30
2017-06-29T03:12:38.913Z,90.30
2017-06-29T03:15:07.198Z,90.60
2017-06-29T03:17:34.719Z,90.60
2017-06-29T03:20:02.271Z,90.90
2017-06-29T03:22:29.798Z,90.90
2017-06-29T03:24:57.340Z,90.90
2017-06-29T03:27:24.869Z,90.90
2017-06-29T03:29:53.174Z,90.90
2017-06-29T03:32:20.706Z,90.90
2017-06-29T03:34:48.277Z,90.90
2017-06-29T03:37:15.815Z,90.90
2017-06-29T03:39:43.974Z,90.60
2017-06-29T03:42:11.507Z,90.60
2017-06-29T03:44:39.026Z,90.00
2017-06-29T03:47:07.330Z,89.80
2017-06-29T03:49:34.856Z,89.80
2017-06-29T03:52:03.162Z,90.10
2017-06-29T03:54:30.686Z,90.20
2017-06-29T03:56:59.012Z,90.60
2017-06-29T03:59:26.535Z,90.60
2017-06-29T04:01:54.099Z,90.60
2017-06-29T04:04:21.633Z,90.60
2017-06-29T04:06:49.930Z,90.60
2017-06-29T04:09:17.470Z,90.60
2017-06-29T04:11:44.998Z,90.60
2017-06-29T04:14:12.569Z,90.60
2017-06-29T04:16:40.134Z,90.60
2017-06-29T04:19:07.719Z,90.60
2017-06-29T04:21:35.280Z,90.60
2017-06-29T04:24:02.851Z,90.50
2017-06-29T04:26:30.444Z,90.50
2017-06-29T04:28:58.003Z,90.50
2017-06-29T04:31:25.571Z,90.50
2017-06-29T04:33:53.132Z,90.50
2017-06-29T04:36:20.716Z,90.50
2017-06-29T04:38:48.271Z,90.50
2017-06-29T04:41:16.485Z,90.50
2017-06-29T04:43:44.042Z,90.50
2017-06-29T04:46:11.642Z,90.50
2017-06-29T04:48:39.190Z,90.40
2017-06-29T04:51:06.753Z,90.50
2017-06-29T04:53:34.328Z,90.50
2017-06-29T04:56:01.902Z,90.50
2017-06-29T04:58:29.514Z,90.50
2017-06-29T05:00:57.078Z,90.50
2017-06-29T05:03:24.671Z,90.70
2017-06-29T05:05:52.236Z,90.70
2017-06-29T05:08:19.796Z,90.50
2017-06-29T05:10:47.362Z,90.50
2017-06-29T05:13:14.918Z,90.50
2017-06-29T05:15:42.516Z,90.50
2017-06-29T05:18:10.075Z,90.50
2017-06-29T05:20:37.669Z,90.50
2017-06-29T05:23:05.221Z,90.50
2017-06-29T05:25:32.815Z,90.00
2017-06-29T05:28:00.385Z,90.30
2017-06-29T05:30:27.961Z,90.00
2017-06-29T05:32:55.539Z,90.20
2017-06-29T05:35:23.104Z,90.10
2017-06-29T05:37:50.692Z,89.70
2017-06-29T05:40:18.244Z,89.70
2017-06-29T05:42:45.810Z,89.60
2017-06-29T05:45:13.392Z,90.10
2017-06-29T05:47:40.970Z,90.40
2017-06-29T05:50:08.550Z,90.40
2017-06-29T05:52:36.078Z,90.10
2017-06-29T05:55:03.621Z,89.80
2017-06-29T05:57:31.141Z,89.90
2017-06-29T05:59:58.680Z,90.30
2017-06-29T06:02:26.205Z,89.80
2017-06-29T06:04:53.761Z,90.10
2017-06-29T06:07:21.282Z,90.20
2017-06-29T06:09:48.802Z,90.40
2017-06-29T06:12:17.118Z,90.00
2017-06-29T06:14:44.625Z,90.00
2017-06-29T06:17:12.166Z,90.10
2017-06-29T06:19:39.684Z,89.40
2017-06-29T06:22:07.235Z,90.00
2017-06-29T06:24:34.760Z,89.70
2017-06-29T06:27:02.362Z,89.70
2017-06-29T06:29:29.881Z,89.00
2017-06-29T06:31:57.467Z,88.90
2017-06-29T06:34:24.993Z,88.90
2017-06-29T06:36:52.527Z,88.10
2017-06-29T06:39:20.066Z,88.10
2017-06-29T06:41:47.666Z,87.50
2017-06-29T06:44:15.214Z,85.70
2017-06-29T06:46:42.742Z,85.00
2017-06-29T06:49:10.293Z,84.60
2017-06-29T06:51:37.846Z,85.40
2017-06-29T06:54:05.398Z,86.40
2017-06-29T06:56:32.938Z,85.80
2017-06-29T06:59:02.289Z,85.60
2017-06-29T07:01:29.849Z,85.50
2017-06-29T07:03:57.381Z,85.70
2017-06-29T07:06:24.921Z,87.10
2017-06-29T07:08:53.205Z,86.00
2017-06-29T07:11:21.513Z,86.70
2017-06-29T07:13:49.039Z,86.60
2017-06-29T07:16:17.342Z,86.50
2017-06-29T07:18:44.867Z,86.40
2017-06-29T07:21:13.181Z,87.00
2017-06-29T07:23:40.744Z,87.00
2017-06-29T07:26:08.387Z,87.70
2017-06-29T07:28:35.934Z,86.80
2017-06-29T07:31:03.466Z,87.30
2017-06-29T07:33:31.013Z,86.70
2017-06-29T07:35:58.580Z,86.50
2017-06-29T07:38:26.897Z,86.30
2017-06-29T07:40:54.491Z,86.80
2017-06-29T07:43:22.030Z,87.10
2017-06-29T07:45:49.571Z,85.50
2017-06-29T07:48:17.117Z,86.70
2017-06-29T07:50:45.397Z,87.20
2017-06-29T07:53:13.721Z,86.10
2017-06-29T07:55:41.252Z,86.20
2017-06-29T07:58:08.777Z,85.60
2017-06-29T08:00:37.092Z,86.20
2017-06-29T08:03:04.615Z,86.20
2017-06-29T08:05:32.942Z,85.90
2017-06-29T08:08:00.466Z,86.00
2017-06-29T08:10:28.010Z,86.10
2017-06-29T08:12:55.575Z,86.50
2017-06-29T08:15:23.875Z,86.30
2017-06-29T08:17:51.389Z,86.30
2017-06-29T08:20:18.988Z,84.90
2017-06-29T08:22:46.512Z,83.80
2017-06-29T08:25:14.107Z,84.20
2017-06-29T08:27:41.722Z,84.10
2017-06-29T08:30:09.335Z,82.90
2017-06-29T08:32:36.958Z,82.80
2017-06-29T08:35:04.618Z,83.60
2017-06-29T08:37:33.010Z,83.50
2017-06-29T08:40:00.628Z,83.50
2017-06-29T08:42:28.253Z,83.00
2017-06-29T08:44:55.861Z,83.00
2017-06-29T08:47:24.313Z,82.70
2017-06-29T08:49:52.735Z,83.70
2017-06-29T08:52:20.341Z,83.60
2017-06-29T08:54:47.963Z,82.60
2017-06-29T08:57:15.549Z,83.00
2017-06-29T08:59:43.165Z,81.80
2017-06-29T09:02:11.524Z,81.80
2017-06-29T09:04:39.149Z,81.90
2017-06-29T09:07:06.744Z,79.20
2017-06-29T09:09:35.161Z,82.50
2017-06-29T09:12:03.521Z,80.20
2017-06-29T09:14:31.900Z,81.40
2017-06-29T09:16:59.534Z,81.30
2017-06-29T09:19:27.126Z,82.30
2017-06-29T09:21:55.466Z,82.10
2017-06-29T09:24:22.977Z,81.80
2017-06-29T09:26:51.299Z,80.30
2017-06-29T09:29:18.822Z,80.20
2017-06-29T09:31:47.134Z,83.00
2017-06-29T09:34:14.656Z,83.00
2017-06-29T09:36:42.981Z,80.80
2017-06-29T09:39:11.305Z,80.80
2017-06-29T09:41:39.678Z,81.50
2017-06-29T09:44:07.999Z,81.40
2017-06-29T09:46:35.530Z,81.10
2017-06-29T09:49:03.078Z,80.90
2017-06-29T09:51:31.376Z,78.80
2017-06-29T09:53:58.939Z,78.60
2017-06-29T09:56:26.462Z,78.40
2017-06-29T09:58:54.339Z,80.50
2017-06-29T10:01:21.857Z,78.40
2017-06-29T10:03:49.424Z,75.90
2017-06-29T10:06:16.957Z,78.20
2017-06-29T10:08:44.478Z,78.50
2017-06-29T10:11:12.038Z,75.90
2017-06-29T10:13:39.583Z,77.60
2017-06-29T10:16:07.274Z,79.20
2017-06-29T10:18:34.819Z,76.20
2017-06-29T10:21:02.546Z,75.50
2017-06-29T10:23:30.231Z,75.20
2017-06-29T10:25:58.553Z,76.80
2017-06-29T10:28:26.076Z,76.80
2017-06-29T10:30:54.366Z,76.30
2017-06-29T10:33:21.911Z,76.30
2017-06-29T10:35:49.445Z,75.00
2017-06-29T10:38:16.989Z,74.80
2017-06-29T10:40:44.514Z,74.60
2017-06-29T10:43:12.066Z,72.50
2017-06-29T10:45:39.588Z,75.50
2017-06-29T10:48:07.899Z,71.20
2017-06-29T10:50:35.481Z,71.20
2017-06-29T10:53:03.033Z,67.30
2017-06-29T10:55:30.558Z,71.40
2017-06-29T10:57:58.885Z,69.30
2017-06-29T11:00:26.432Z,69.30
2017-06-29T11:02:53.949Z,65.80
2017-06-29T11:05:22.262Z,67.60
2017-06-29T11:07:49.786Z,67.50
2017-06-29T11:10:17.338Z,62.70
2017-06-29T11:12:44.854Z,61.60
2017-06-29T11:15:12.375Z,64.90
2017-06-29T11:17:39.923Z,63.00
2017-06-29T11:20:09.359Z,63.30
2017-06-29T11:22:36.898Z,63.00
2017-06-29T11:25:04.442Z,65.40
2017-06-29T11:27:35.009Z,66.50
2017-06-29T11:30:02.548Z,65.40
2017-06-29T11:32:30.093Z,68.40
2017-06-29T11:34:57.601Z,67.10
2017-06-29T11:37:25.155Z,64.70
2017-06-29T11:39:52.679Z,65.00
2017-06-29T11:42:20.207Z,60.20
2017-06-29T11:44:47.748Z,61.50
2017-06-29T11:47:15.277Z,62.30
2017-06-29T11:49:42.856Z,63.40
2017-06-29T11:52:10.379Z,64.70
2017-06-29T11:54:37.916Z,65.00
2017-06-29T11:57:06.214Z,70.30
2017-06-29T11:59:33.793Z,70.30
2017-06-29T12:02:01.317Z,70.00
2017-06-29T12:04:32.442Z,66.00
2017-06-29T12:06:59.975Z,68.30
2017-06-29T12:09:27.481Z,65.90
2017-06-29T12:11:55.798Z,59.00
2017-06-29T12:14:23.316Z,58.70
2017-06-29T12:16:50.853Z,55.00
2017-06-29T12:19:18.374Z,56.90
2017-06-29T12:21:45.907Z,55.30
2017-06-29T12:24:13.422Z,55.20
2017-06-29T12:26:40.960Z,55.80
2017-06-29T12:29:08.476Z,56.80
2017-06-29T12:31:36.036Z,55.40
2017-06-29T12:34:03.613Z,54.90
2017-06-29T12:36:31.134Z,52.80
2017-06-29T12:38:59.465Z,47.30
2017-06-29T12:41:26.985Z,47.30
2017-06-29T12:43:54.517Z,44.00
2017-06-29T12:46:22.798Z,47.60
2017-06-29T12:48:53.547Z,47.60
2017-06-29T12:51:21.065Z,44.10
2017-06-29T12:53:48.612Z,47.00
2017-06-29T12:56:16.128Z,49.30
2017-06-29T12:58:43.679Z,46.40
2017-06-29T13:01:11.965Z,45.00
2017-06-29T13:03:39.479Z,45.00
2017-06-29T13:06:07.015Z,43.40
2017-06-29T13:08:34.528Z,44.30
2017-06-29T13:11:02.121Z,43.90
2017-06-29T13:13:29.654Z,44.70
2017-06-29T13:15:57.192Z,46.90
2017-06-29T13:18:24.731Z,47.80
2017-06-29T13:20:52.330Z,48.00
2017-06-29T13:23:19.896Z,48.60
2017-06-29T13:25:47.460Z,49.70
2017-06-29T13:28:15.020Z,45.70
2017-06-29T13:30:42.918Z,43.30
2017-06-29T13:33:10.478Z,41.60
2017-06-29T13:35:37.995Z,42.20
2017-06-29T13:38:05.534Z,38.50
2017-06-29T13:40:33.052Z,39.60
2017-06-29T13:43:00.577Z,36.10
2017-06-29T13:45:28.116Z,38.20
2017-06-29T13:47:55.634Z,35.30
2017-06-29T13:50:23.168Z,38.00
2017-06-29T13:52:50.693Z,38.30
2017-06-29T13:55:19.013Z,39.00
2017-06-29T13:57:46.533Z,38.90
2017-06-29T14:00:14.808Z,38.70
2017-06-29T14:02:43.101Z,37.80
2017-06-29T14:05:10.624Z,37.70
2017-06-29T14:07:38.945Z,43.30
2017-06-29T14:10:06.461Z,42.60
2017-06-29T14:12:34.881Z,44.50
2017-06-29T14:15:02.413Z,40.70
2017-06-29T14:17:29.933Z,40.30
2017-06-29T14:19:57.474Z,40.60
2017-06-29T14:22:24.986Z,37.50
2017-06-29T14:24:53.301Z,33.50
2017-06-29T14:27:20.812Z,33.30
2017-06-29T14:29:48.418Z,33.50
2017-06-29T14:32:15.948Z,33.80
2017-06-29T14:34:44.236Z,32.90
2017-06-29T14:37:11.872Z,33.10
2017-06-29T14:39:40.155Z,34.20
2017-06-29T14:42:08.457Z,34.80
2017-06-29T14:44:35.996Z,34.90
2017-06-29T14:47:03.545Z,34.70
2017-06-29T14:49:31.054Z,35.00
2017-06-29T14:51:58.561Z,34.20
2017-06-29T14:54:26.868Z,34.30
2017-06-29T14:56:54.385Z,33.90
2017-06-29T14:59:22.687Z,33.60
2017-06-29T15:01:50.189Z,33.60
2017-06-29T15:04:17.832Z,36.30
2017-06-29T15:06:45.349Z,34.30
2017-06-29T15:09:12.889Z,35.20
2017-06-29T15:11:40.424Z,36.60
2017-06-29T15:14:07.993Z,35.40
2017-06-29T15:16:35.507Z,38.40
2017-06-29T15:19:03.020Z,35.60
2017-06-29T15:21:30.549Z,35.60
2017-06-29T15:23:58.102Z,33.40
2017-06-29T15:26:25.633Z,35.70
2017-06-29T15:28:53.147Z,35.00
2017-06-29T15:31:20.692Z,34.00
2017-06-29T15:33:48.208Z,34.40
2017-06-29T15:36:15.732Z,32.70
2017-06-29T15:38:43.245Z,34.80
2017-06-29T15:41:10.794Z,33.70
2017-06-29T15:43:38.308Z,36.00
2017-06-29T15:46:05.929Z,32.90
2017-06-29T15:48:33.470Z,32.70
2017-06-29T15:51:00.988Z,33.30
2017-06-29T15:53:28.517Z,32.70
2017-06-29T15:55:56.035Z,32.90
2017-06-29T15:58:23.560Z,32.90
2017-06-29T16:00:51.077Z,32.60
2017-06-29T16:03:22.346Z,33.90
2017-06-29T16:05:49.860Z,33.30
2017-06-29T16:08:17.370Z,36.40
2017-06-29T16:10:44.926Z,32.60
2017-06-29T16:13:12.448Z,33.70
2017-06-29T16:15:39.986Z,33.40
2017-06-29T16:18:07.505Z,38.80
2017-06-29T16:20:35.037Z,35.30
2017-06-29T16:23:02.544Z,36.40
2017-06-29T16:25:30.088Z,37.80
2017-06-29T16:27:57.603Z,34.80
2017-06-29T16:30:25.154Z,36.40
2017-06-29T16:32:52.673Z,32.60
2017-06-29T16:35:20.320Z,36.90
2017-06-29T16:37:47.884Z,35.20
2017-06-29T16:40:15.392Z,36.40
2017-06-29T16:42:42.926Z,36.40
2017-06-29T16:45:11.218Z,37.60
2017-06-29T16:47:38.749Z,37.60
2017-06-29T16:50:06.273Z,38.30
2017-06-29T16:52:33.814Z,40.50
2017-06-29T16:55:01.337Z,40.30
2017-06-29T16:57:28.903Z,40.00
2017-06-29T16:59:56.421Z,41.40
2017-06-29T17:02:23.946Z,42.80
2017-06-29T17:04:51.476Z,51.90
2017-06-29T17:07:18.997Z,54.50
2017-06-29T17:09:46.533Z,63.00
2017-06-29T17:12:14.060Z,65.10
2017-06-29T17:14:42.240Z,65.80
2017-06-29T17:17:10.271Z,68.10
2017-06-29T17:19:38.588Z,68.70
2017-06-29T17:22:06.112Z,68.70
2017-06-29T17:24:34.408Z,68.50
2017-06-29T17:27:01.969Z,68.40
2017-06-29T17:29:29.489Z,69.30
2017-06-29T17:31:57.106Z,74.10
2017-06-29T17:34:24.636Z,74.00
2017-06-29T17:36:52.198Z,77.10
2017-06-29T17:39:19.717Z,71.70
2017-06-29T17:41:47.265Z,71.90
2017-06-29T17:44:14.780Z,72.90
2017-06-29T17:46:42.306Z,70.50
2017-06-29T17:49:09.843Z,69.40
2017-06-29T17:51:37.366Z,70.10
2017-06-29T17:54:04.905Z,69.80
2017-06-29T17:56:33.189Z,67.50
2017-06-29T17:59:00.736Z,67.40
2017-06-29T18:01:29.028Z,68.30
2017-06-29T18:03:56.570Z,68.50
2017-06-29T18:06:24.857Z,69.70
2017-06-29T18:08:52.382Z,69.60
2017-06-29T18:11:19.940Z,69.70
2017-06-29T18:13:47.564Z,69.60
2017-06-29T18:16:15.132Z,70.50
2017-06-29T18:18:42.658Z,70.70
2017-06-29T18:21:10.197Z,68.90
2017-06-29T18:23:38.479Z,71.00
2017-06-29T18:26:06.026Z,70.80
2017-06-29T18:28:34.316Z,70.70
2017-06-29T18:31:02.592Z,68.30
2017-06-29T18:33:30.902Z,71.00
2017-06-29T18:35:58.464Z,70.90
2017-06-29T18:38:25.994Z,70.70
2017-06-29T18:40:53.530Z,70.40
2017-06-29T18:43:21.081Z,72.90
2017-06-29T18:45:48.592Z,72.80
2017-06-29T18:48:16.129Z,72.80
2017-06-29T18:50:44.593Z,73.00
2017-06-29T18:53:12.126Z,72.30
2017-06-29T18:55:39.657Z,73.60
2017-06-29T18:58:07.176Z,73.40
2017-06-29T19:00:35.476Z,73.70
2017-06-29T19:03:02.993Z,73.60
2017-06-29T19:05:30.526Z,74.50
2017-06-29T19:07:58.041Z,73.90
2017-06-29T19:10:25.600Z,76.70
2017-06-29T19:12:53.164Z,76.50
2017-06-29T19:15:20.688Z,76.10
2017-06-29T19:17:48.228Z,77.00
2017-06-29T19:20:15.796Z,76.90
2017-06-29T19:22:43.328Z,77.40
2017-06-29T19:25:10.839Z,78.90
2017-06-29T19:27:38.391Z,78.90
2017-06-29T19:30:06.688Z,80.50
2017-06-29T19:32:34.253Z,80.40
2017-06-29T19:35:01.781Z,81.00
2017-06-29T19:37:30.073Z,82.10
2017-06-29T19:39:57.624Z,81.60
2017-06-29T19:42:25.156Z,82.50
2017-06-29T19:44:52.697Z,81.30
2017-06-29T19:47:20.227Z,82.10
2017-06-29T19:49:47.783Z,83.10
2017-06-29T19:52:15.297Z,83.60
2017-06-29T19:54:42.865Z,83.60
2017-06-29T19:57:10.419Z,83.80
2017-06-29T19:59:37.945Z,84.00
2017-06-29T20:02:05.489Z,83.50
2017-06-29T20:04:33.004Z,83.30
2017-06-29T20:07:00.533Z,83.50
2017-06-29T20:09:28.062Z,83.40
2017-06-29T20:11:55.596Z,83.60
2017-06-29T20:14:23.108Z,83.90
2017-06-29T20:16:50.668Z,83.70
2017-06-29T20:19:18.193Z,84.10
2017-06-29T20:21:45.749Z,83.80
2017-06-29T20:24:13.279Z,83.50
2017-06-29T20:26:41.660Z,82.50
2017-06-29T20:29:09.960Z,82.30
2017-06-29T20:31:37.506Z,82.20
2017-06-29T20:34:05.312Z,82.30
2017-06-29T20:36:32.953Z,81.90
2017-06-29T20:39:00.516Z,81.40
2017-06-29T20:41:31.843Z,81.30
2017-06-29T20:43:59.372Z,81.30
2017-06-29T20:46:27.672Z,82.10
2017-06-29T20:48:55.957Z,81.40
2017-06-29T20:51:23.516Z,81.40
2017-06-29T20:53:51.029Z,81.40
2017-06-29T20:56:18.560Z,80.40
2017-06-29T20:58:46.068Z,79.50
2017-06-29T21:01:14.394Z,78.30
2017-06-29T21:03:41.908Z,78.30
2017-06-29T21:06:10.181Z,76.50
2017-06-29T21:08:38.493Z,76.90
2017-06-29T21:11:06.005Z,76.80
2017-06-29T21:13:34.330Z,76.50
2017-06-29T21:16:01.842Z,75.80
2017-06-29T21:18:29.982Z,75.30
2017-06-29T21:20:57.496Z,75.20
2017-06-29T21:23:25.008Z,75.20
2017-06-29T21:25:52.549Z,74.60
2017-06-29T21:28:20.061Z,75.30
2017-06-29T21:30:48.363Z,75.90
2017-06-29T21:33:15.876Z,75.80
2017-06-29T21:35:43.445Z,76.40
2017-06-29T21:38:10.974Z,77.30
2017-06-29T21:40:38.517Z,77.90
2017-06-29T21:43:06.060Z,78.80
2017-06-29T21:45:33.609Z,79.80
2017-06-29T21:48:01.124Z,79.70
2017-06-29T21:50:28.640Z,80.10
2017-06-29T21:52:56.189Z,80.60
2017-06-29T21:55:23.732Z,81.30
2017-06-29T21:57:51.262Z,80.80
2017-06-29T22:00:18.781Z,81.50
2017-06-29T22:02:46.316Z,80.80
2017-06-29T22:05:13.873Z,80.60
2017-06-29T22:07:41.415Z,80.20
2017-06-29T22:10:09.705Z,80.00
2017-06-29T22:12:37.341Z,79.80
2017-06-29T22:15:05.633Z,79.30
2017-06-29T22:17:33.945Z,79.60
2017-06-29T22:20:01.461Z,79.60
2017-06-29T22:22:28.981Z,80.30
2017-06-29T22:24:56.520Z,80.70
2017-06-29T22:27:24.033Z,81.60
2017-06-29T22:29:52.350Z,81.60
2017-06-29T22:32:19.866Z,81.60
2017-06-29T22:34:48.166Z,82.50
2017-06-29T22:37:15.680Z,81.90
2017-06-29T22:39:43.216Z,81.70
2017-06-29T22:42:10.729Z,81.60
2017-06-29T22:44:39.039Z,82.30
2017-06-29T22:47:06.557Z,82.30
2017-06-29T22:49:34.836Z,83.60
2017-06-29T22:52:03.138Z,83.80
2017-06-29T22:54:30.652Z,83.80
2017-06-29T22:56:58.189Z,83.10
2017-06-29T22:59:25.699Z,83.60
2017-06-29T23:01:53.230Z,83.10
2017-06-29T23:04:21.525Z,84.30
2017-06-29T23:06:49.073Z,83.60
2017-06-29T23:09:17.397Z,84.10
2017-06-29T23:11:44.909Z,84.00
2017-06-29T23:14:12.453Z,84.00
2017-06-29T23:16:39.977Z,84.20
2017-06-29T23:19:07.507Z,84.50
2017-06-29T23:21:35.023Z,84.80
2017-06-29T23:24:02.555Z,84.80
2017-06-29T23:26:30.073Z,85.00
2017-06-29T23:28:58.374Z,85.80
2017-06-29T23:31:25.890Z,85.70
2017-06-29T23:33:53.438Z,86.30
2017-06-29T23:36:20.948Z,86.70
2017-06-29T23:38:48.474Z,87.10
2017-06-29T23:41:16.797Z,87.20
2017-06-29T23:43:44.318Z,87.10
2017-06-29T23:46:11.850Z,87.80
2017-06-29T23:48:39.371Z,86.60
2017-06-29T23:51:06.909Z,86.60
2017-06-29T23:53:34.412Z,86.90
2017-06-29T23:56:01.946Z,86.20
2017-06-29T23:58:29.463Z,85.80
